createdAt,value
2022-10-27T04:01:23.297Z,2.70
2022-10-27T04:03:55.371Z,2.60
2022-10-27T04:06:27.359Z,2.93
2022-10-27T04:08:59.386Z,2.70
2022-10-27T04:11:31.461Z,2.77
2022-10-27T04:14:03.952Z,2.60
2022-10-27T04:16:37.311Z,2.60
2022-10-27T04:19:09.349Z,2.87
2022-10-27T04:21:41.378Z,2.70
2022-10-27T04:24:13.467Z,2.53
2022-10-27T04:26:45.463Z,2.80
2022-10-27T04:29:17.471Z,2.87
2022-10-27T04:31:50.803Z,3.03
2022-10-27T04:34:22.799Z,2.90
2022-10-27T04:36:55.243Z,2.70
2022-10-27T04:39:27.264Z,2.87
2022-10-27T04:41:59.252Z,2.70
2022-10-27T04:44:31.268Z,2.80
2022-10-27T04:47:04.651Z,2.73
2022-10-27T04:49:36.665Z,3.03
2022-10-27T04:52:08.724Z,3.05
2022-10-27T04:54:40.752Z,3.30
2022-10-27T04:57:12.750Z,3.60
2022-10-27T04:59:45.044Z,2.90
2022-10-27T05:02:18.427Z,3.20
2022-10-27T05:04:50.483Z,2.87
2022-10-27T05:07:22.474Z,3.00
2022-10-27T05:09:54.489Z,3.20
2022-10-27T05:12:26.515Z,3.03
2022-10-27T05:14:58.525Z,3.33
2022-10-27T05:17:31.863Z,3.43
2022-10-27T05:20:03.984Z,3.20
2022-10-27T05:22:35.989Z,3.67
2022-10-27T05:25:08.449Z,3.33
2022-10-27T05:27:40.471Z,3.33
2022-10-27T05:30:12.789Z,3.73
2022-10-27T05:32:47.556Z,4.00
2022-10-27T05:35:19.800Z,3.83
2022-10-27T05:37:52.081Z,3.87
2022-10-27T05:40:24.269Z,3.63
2022-10-27T05:42:56.670Z,3.50
2022-10-27T05:45:28.884Z,3.83
2022-10-27T05:48:02.621Z,4.10
2022-10-27T05:50:34.779Z,3.80
2022-10-27T05:53:06.868Z,3.93
2022-10-27T05:55:38.878Z,3.90
2022-10-27T05:58:10.929Z,4.20
2022-10-27T06:00:42.954Z,4.20
2022-10-27T06:03:19.364Z,4.17
2022-10-27T06:05:51.443Z,3.73
2022-10-27T06:08:23.500Z,3.70
2022-10-27T06:10:55.557Z,3.70
2022-10-27T06:13:27.558Z,3.40
2022-10-27T06:15:59.579Z,3.90
2022-10-27T06:18:32.968Z,4.03
2022-10-27T06:21:05.087Z,3.20
2022-10-27T06:23:37.113Z,3.33
2022-10-27T06:26:09.640Z,3.27
2022-10-27T06:28:41.710Z,3.50
2022-10-27T06:31:13.767Z,3.87
2022-10-27T06:33:47.358Z,3.63
2022-10-27T06:36:19.369Z,4.00
2022-10-27T06:38:51.400Z,3.20
2022-10-27T06:41:23.388Z,3.07
2022-10-27T06:43:55.435Z,2.80
2022-10-27T06:46:27.456Z,2.87
2022-10-27T06:49:00.861Z,2.93
2022-10-27T06:51:32.912Z,3.20
2022-10-27T06:54:04.943Z,3.00
2022-10-27T06:56:36.965Z,2.70
2022-10-27T06:59:09.000Z,2.60
2022-10-27T07:01:41.061Z,3.60
2022-10-27T07:04:14.535Z,3.10
2022-10-27T07:06:46.529Z,2.73
2022-10-27T07:09:18.660Z,3.57
2022-10-27T07:11:50.712Z,2.88
2022-10-27T07:14:22.814Z,2.63
2022-10-27T07:16:54.845Z,2.70
2022-10-27T07:19:28.317Z,2.50
2022-10-27T07:22:00.353Z,2.77
2022-10-27T07:24:32.413Z,2.57
2022-10-27T07:27:05.552Z,2.60
2022-10-27T07:29:39.558Z,2.80
2022-10-27T07:32:11.556Z,2.40
2022-10-27T07:34:44.944Z,2.38
2022-10-27T07:37:16.948Z,2.37
2022-10-27T07:39:48.981Z,2.30
2022-10-27T07:42:21.009Z,2.40
2022-10-27T07:44:53.031Z,2.73
2022-10-27T07:47:25.051Z,2.75
2022-10-27T07:49:58.456Z,2.57
2022-10-27T07:52:30.498Z,2.38
2022-10-27T07:55:02.548Z,2.45
2022-10-27T07:57:34.579Z,2.50
2022-10-27T08:00:07.135Z,2.30
2022-10-27T08:02:39.193Z,2.50
2022-10-27T08:05:12.570Z,2.20
2022-10-27T08:07:44.567Z,2.35
2022-10-27T08:10:16.577Z,2.85
2022-10-27T08:12:48.593Z,2.80
2022-10-27T08:15:20.600Z,2.63
2022-10-27T08:17:52.958Z,2.30
2022-10-27T08:20:26.696Z,2.83
2022-10-27T08:22:58.768Z,2.17
2022-10-27T08:25:30.797Z,2.28
2022-10-27T08:28:02.808Z,2.35
2022-10-27T08:30:40.150Z,3.33
2022-10-27T08:33:16.372Z,2.50
2022-10-27T08:35:49.807Z,2.33
2022-10-27T08:38:21.864Z,2.30
2022-10-27T08:41:00.062Z,2.10
2022-10-27T08:43:41.549Z,2.63
2022-10-27T08:46:14.869Z,2.58
2022-10-27T08:48:46.977Z,2.55
2022-10-27T08:51:21.139Z,2.28
2022-10-27T08:53:53.555Z,2.22
2022-10-27T08:56:26.424Z,2.42
2022-10-27T08:58:58.556Z,1.90
2022-10-27T09:01:32.015Z,2.20
2022-10-27T09:04:10.434Z,2.60
2022-10-27T09:06:46.158Z,1.92
2022-10-27T09:09:19.990Z,2.05
2022-10-27T09:11:53.276Z,2.00
2022-10-27T09:14:32.386Z,2.10
2022-10-27T09:17:04.645Z,2.13
2022-10-27T09:19:38.846Z,1.88
2022-10-27T09:22:13.129Z,1.85
2022-10-27T09:24:45.151Z,1.80
2022-10-27T09:27:16.793Z,1.90
2022-10-27T09:29:48.625Z,1.83
2022-10-27T09:32:21.771Z,1.67
2022-10-27T09:34:55.537Z,2.08
2022-10-27T09:37:29.231Z,1.95
2022-10-27T09:40:00.875Z,2.05
2022-10-27T09:42:32.506Z,1.85
2022-10-27T09:45:14.661Z,2.05
2022-10-27T09:47:48.222Z,2.15
2022-10-27T09:50:21.639Z,1.83
2022-10-27T09:52:54.687Z,2.08
2022-10-27T09:55:26.991Z,1.63
2022-10-27T09:58:01.373Z,2.22
2022-10-27T10:00:33.007Z,1.73
2022-10-27T10:03:05.443Z,1.95
2022-10-27T10:05:37.206Z,1.95
2022-10-27T10:08:13.665Z,1.90
2022-10-27T10:10:54.152Z,2.08
2022-10-27T10:13:26.364Z,2.20
2022-10-27T10:18:30.905Z,2.08
2022-10-27T10:21:03.393Z,2.05
2022-10-27T10:23:37.009Z,2.22
2022-10-27T10:26:15.735Z,2.20
2022-10-27T10:28:47.384Z,2.38
2022-10-27T10:31:22.226Z,2.15
2022-10-27T10:33:54.435Z,2.10
2022-10-27T10:36:26.773Z,2.08
2022-10-27T10:38:59.861Z,2.05
2022-10-27T10:41:31.508Z,2.33
2022-10-27T10:44:12.597Z,2.40
2022-10-27T10:46:50.926Z,2.22
2022-10-27T10:49:23.447Z,2.25
2022-10-27T10:51:56.316Z,2.08
2022-10-27T10:54:31.436Z,1.98
2022-10-27T10:57:03.222Z,2.20
2022-10-27T10:59:34.912Z,2.38
2022-10-27T11:02:12.730Z,2.17
2022-10-27T11:04:45.293Z,1.95
2022-10-27T11:07:19.537Z,2.10
2022-10-27T11:09:57.613Z,2.25
2022-10-27T11:12:32.652Z,2.55
2022-10-27T11:15:09.109Z,2.55
2022-10-27T11:17:40.881Z,2.20
2022-10-27T11:20:17.285Z,2.30
2022-10-27T11:22:49.733Z,2.22
2022-10-27T11:25:23.548Z,2.10
2022-10-27T11:27:57.056Z,2.60
2022-10-27T11:30:29.268Z,2.28
2022-10-27T11:33:08.293Z,2.75
2022-10-27T11:35:44.559Z,2.10
2022-10-27T11:38:19.655Z,2.85
2022-10-27T11:40:54.297Z,2.35
2022-10-27T11:43:28.141Z,2.10
2022-10-27T11:46:03.845Z,2.60
2022-10-27T11:48:37.109Z,2.40
2022-10-27T11:51:09.995Z,2.22
2022-10-27T11:53:41.633Z,2.25
2022-10-27T11:56:47.959Z,2.72
2022-10-27T11:59:21.982Z,2.30
2022-10-27T12:02:04.762Z,2.47
2022-10-27T12:04:44.058Z,2.63
2022-10-27T12:07:20.961Z,2.38
2022-10-27T12:09:59.620Z,2.35
2022-10-27T12:12:33.961Z,2.17
2022-10-27T12:15:09.594Z,2.40
2022-10-27T12:17:43.524Z,1.92
2022-10-27T12:20:17.574Z,2.10
2022-10-27T12:22:51.010Z,2.40
2022-10-27T12:25:25.529Z,2.25
2022-10-27T12:27:58.520Z,2.47
2022-10-27T12:30:30.175Z,2.60
2022-10-27T12:33:03.120Z,2.40
2022-10-27T12:35:38.878Z,2.35
2022-10-27T12:38:12.569Z,2.42
2022-10-27T12:40:46.268Z,2.92
2022-10-27T12:43:23.049Z,2.53
2022-10-27T12:46:07.047Z,2.10
2022-10-27T12:48:41.365Z,3.08
2022-10-27T12:51:17.857Z,2.55
2022-10-27T12:53:51.510Z,2.40
2022-10-27T12:56:27.561Z,2.63
2022-10-27T12:59:06.925Z,2.47
2022-10-27T13:01:41.673Z,3.00
2022-10-27T13:04:29.803Z,2.83
2022-10-27T13:07:15.235Z,2.42
2022-10-27T13:10:07.077Z,2.90
2022-10-27T13:12:53.828Z,2.40
2022-10-27T13:15:45.689Z,2.35
2022-10-27T13:18:47.689Z,2.42
2022-10-27T13:21:21.908Z,2.60
2022-10-27T13:23:59.409Z,2.60
2022-10-27T13:26:33.127Z,2.65
2022-10-27T13:29:06.998Z,2.65
2022-10-27T13:31:39.991Z,2.72
2022-10-27T13:34:18.883Z,2.17
2022-10-27T13:36:50.981Z,2.60
2022-10-27T13:39:43.681Z,2.72
2022-10-27T13:42:16.528Z,2.60
2022-10-27T13:44:48.241Z,2.70
2022-10-27T13:47:21.251Z,3.00
2022-10-27T13:49:57.806Z,2.50
2022-10-27T13:52:30.599Z,2.58
2022-10-27T13:55:36.468Z,2.70
2022-10-27T13:58:27.177Z,2.97
2022-10-27T14:01:24.706Z,3.55
2022-10-27T14:04:08.160Z,3.20
2022-10-27T14:06:40.714Z,3.38
2022-10-27T14:09:24.839Z,3.08
2022-10-27T14:11:58.933Z,3.03
2022-10-27T14:14:32.313Z,2.80
2022-10-27T14:17:08.843Z,3.10
2022-10-27T14:19:42.817Z,3.05
2022-10-27T14:22:35.086Z,3.15
2022-10-27T14:25:16.640Z,3.45
2022-10-27T14:27:48.364Z,3.13
2022-10-27T14:30:21.341Z,3.35
2022-10-27T14:32:53.000Z,2.75
2022-10-27T14:35:26.807Z,2.50
2022-10-27T14:37:58.440Z,2.90
2022-10-27T14:40:37.229Z,3.10
2022-10-27T14:43:10.100Z,4.32
2022-10-27T14:45:41.736Z,4.07
2022-10-27T14:48:21.315Z,5.65
2022-10-27T14:50:54.300Z,4.57
2022-10-27T14:53:27.607Z,10.20
2022-10-27T14:56:06.468Z,5.63
2022-10-27T14:58:38.137Z,4.47
2022-10-27T15:01:25.669Z,6.55
2022-10-27T15:04:13.835Z,4.05
2022-10-27T15:06:47.273Z,4.53
2022-10-27T15:09:31.349Z,4.38
2022-10-27T15:12:04.075Z,3.55
2022-10-27T15:14:35.711Z,4.32
2022-10-27T15:17:11.078Z,4.32
2022-10-27T15:19:47.692Z,3.00
2022-10-27T15:22:22.323Z,3.70
2022-10-27T15:24:55.224Z,3.50
2022-10-27T15:27:29.137Z,3.88
2022-10-27T15:30:02.107Z,3.95
2022-10-27T15:32:35.851Z,3.80
2022-10-27T15:35:27.446Z,3.70
2022-10-27T15:38:01.909Z,3.65
2022-10-27T15:40:37.391Z,4.03
2022-10-27T15:43:26.959Z,4.63
2022-10-27T15:46:07.490Z,4.47
2022-10-27T15:48:40.750Z,4.07
2022-10-27T15:51:15.173Z,3.17
2022-10-27T15:53:51.584Z,3.95
2022-10-27T15:56:28.790Z,5.65
2022-10-27T15:59:05.303Z,3.17
2022-10-27T16:01:39.360Z,3.60
2022-10-27T16:04:23.785Z,3.20
2022-10-27T16:07:11.211Z,3.53
2022-10-27T16:09:45.867Z,3.22
2022-10-27T16:12:19.821Z,3.25
2022-10-27T16:14:53.862Z,3.60
2022-10-27T16:17:27.267Z,3.30
2022-10-27T16:20:04.867Z,3.60
2022-10-27T16:22:37.751Z,3.92
2022-10-27T16:25:14.478Z,7.18
2022-10-27T16:27:46.535Z,4.50
2022-10-27T16:30:19.384Z,3.83
2022-10-27T16:32:54.036Z,3.40
2022-10-27T16:35:25.849Z,3.72
2022-10-27T16:37:57.597Z,4.15
2022-10-27T16:40:30.591Z,3.55
2022-10-27T16:43:02.240Z,4.40
2022-10-27T16:45:33.872Z,3.83
2022-10-27T16:48:06.145Z,3.65
2022-10-27T16:50:37.764Z,3.50
2022-10-27T16:53:09.420Z,4.40
2022-10-27T16:55:42.400Z,3.88
2022-10-27T16:58:14.047Z,3.60
2022-10-27T17:00:45.687Z,3.67
2022-10-27T17:03:17.353Z,3.40
2022-10-27T17:05:48.992Z,3.85
2022-10-27T17:08:20.644Z,4.13
2022-10-27T17:10:53.637Z,4.15
2022-10-27T17:13:25.404Z,3.72
2022-10-27T17:16:01.459Z,3.95
2022-10-27T17:18:33.151Z,4.40
2022-10-27T17:21:04.984Z,4.28
2022-10-27T17:23:36.737Z,3.85
2022-10-27T17:26:10.197Z,4.70
2022-10-27T17:28:42.006Z,3.83
2022-10-27T17:31:13.732Z,4.38
2022-10-27T17:33:45.372Z,4.05
2022-10-27T17:36:16.996Z,4.25
2022-10-27T17:38:48.650Z,3.85
2022-10-27T17:41:21.633Z,4.32
2022-10-27T17:43:53.497Z,4.22
2022-10-27T17:46:25.147Z,3.78
2022-10-27T17:48:57.412Z,4.45
2022-10-27T17:51:29.708Z,5.00
2022-10-27T17:54:02.056Z,4.25
2022-10-27T17:56:35.809Z,7.70
2022-10-27T17:59:07.490Z,8.32
2022-10-27T18:01:39.323Z,5.20
2022-10-27T18:04:11.755Z,4.95
2022-10-27T18:06:43.397Z,5.45
2022-10-27T18:09:15.158Z,8.18
2022-10-27T18:11:48.140Z,8.80
2022-10-27T18:14:19.789Z,9.80
2022-10-27T18:16:51.438Z,7.38
2022-10-27T18:19:23.069Z,7.70
2022-10-27T18:21:54.706Z,7.75
2022-10-27T18:24:26.341Z,7.32
2022-10-27T18:26:59.324Z,5.78
2022-10-27T18:29:31.052Z,6.18
2022-10-27T18:32:02.754Z,7.00
2022-10-27T18:34:34.414Z,7.90
2022-10-27T18:37:06.045Z,5.45
2022-10-27T18:39:37.698Z,6.03
2022-10-27T18:42:10.754Z,5.65
2022-10-27T18:44:42.413Z,5.40
2022-10-27T18:47:14.084Z,4.85
2022-10-27T18:49:48.502Z,5.90
2022-10-27T18:52:20.573Z,7.05
2022-10-27T18:54:52.221Z,8.50
2022-10-27T18:57:25.176Z,6.20
2022-10-27T18:59:56.811Z,5.53
2022-10-27T19:02:28.574Z,5.30
2022-10-27T19:05:00.292Z,5.32
2022-10-27T19:07:31.942Z,5.28
2022-10-27T19:10:03.809Z,5.00
2022-10-27T19:12:36.809Z,4.90
2022-10-27T19:15:09.546Z,5.53
2022-10-27T19:17:41.195Z,5.30
2022-10-27T19:20:12.831Z,6.97
2022-10-27T19:22:44.463Z,6.70
2022-10-27T19:25:16.237Z,6.07
2022-10-27T19:27:49.391Z,6.00
2022-10-27T19:30:21.020Z,5.28
2022-10-27T19:32:54.132Z,6.18
2022-10-27T19:35:26.071Z,5.60
2022-10-27T19:37:57.699Z,5.57
2022-10-27T19:40:29.319Z,5.95
2022-10-27T19:43:02.315Z,6.13
2022-10-27T19:45:33.963Z,5.55
2022-10-27T19:48:06.550Z,5.88
2022-10-27T19:50:38.293Z,7.53
2022-10-27T19:53:09.996Z,6.50
2022-10-27T19:55:41.636Z,5.60
2022-10-27T19:58:14.631Z,5.32
2022-10-27T20:00:46.546Z,5.22
2022-10-27T20:03:18.198Z,5.13
2022-10-27T20:05:53.645Z,7.38
2022-10-27T20:08:25.305Z,6.03
2022-10-27T20:10:56.940Z,5.50
2022-10-27T20:13:29.903Z,6.20
2022-10-27T20:16:02.131Z,5.58
2022-10-27T20:18:34.056Z,5.85
2022-10-27T20:21:05.888Z,6.50
2022-10-27T20:23:37.541Z,6.53
2022-10-27T20:26:28.382Z,6.18
2022-10-27T20:29:01.964Z,5.60
2022-10-27T20:31:33.665Z,5.93
2022-10-27T20:34:05.664Z,5.65
2022-10-27T20:36:37.709Z,6.85
2022-10-27T20:39:10.004Z,6.90
2022-10-27T20:41:41.679Z,6.68
2022-10-27T20:44:14.669Z,6.43
2022-10-27T20:46:46.681Z,5.30
2022-10-27T20:49:18.381Z,5.55
2022-10-27T20:51:50.036Z,5.45
2022-10-27T20:54:21.691Z,4.95
2022-10-27T20:56:53.310Z,5.35
2022-10-27T20:59:26.623Z,5.00
2022-10-27T21:01:58.498Z,5.40
2022-10-27T21:04:30.257Z,4.50
2022-10-27T21:07:01.885Z,4.80
2022-10-27T21:09:33.597Z,5.53
2022-10-27T21:12:06.057Z,4.97
2022-10-27T21:14:39.236Z,5.22
2022-10-27T21:17:10.929Z,5.20
2022-10-27T21:19:42.584Z,5.15
2022-10-27T21:22:14.218Z,4.88
2022-10-27T21:24:45.867Z,5.28
2022-10-27T21:27:17.471Z,5.35
2022-10-27T21:29:50.479Z,5.25
2022-10-27T21:32:22.127Z,5.25
2022-10-27T21:34:53.760Z,5.40
2022-10-27T21:37:25.981Z,4.78
2022-10-27T21:39:57.730Z,4.97
2022-10-27T21:42:29.375Z,4.57
2022-10-27T21:45:02.365Z,5.63
2022-10-27T21:47:34.047Z,4.82
2022-10-27T21:50:06.725Z,4.93
2022-10-27T21:52:38.368Z,5.03
2022-10-27T21:55:10.198Z,5.57
2022-10-27T21:57:41.865Z,5.50
